createdAt,value
2024-02-14T00:01:58.649Z,5.02
2024-02-14T00:04:25.997Z,4.99
2024-02-14T00:06:55.482Z,5.02
2024-02-14T00:09:22.310Z,5.06
2024-02-14T00:11:49.411Z,5.45
2024-02-14T00:14:17.285Z,5.91
2024-02-14T00:16:44.482Z,6.38
2024-02-14T00:19:14.287Z,5.96
2024-02-14T00:21:42.744Z,5.53
2024-02-14T00:24:09.565Z,5.38
2024-02-14T00:26:37.207Z,5.36
2024-02-14T00:29:04.035Z,5.29
2024-02-14T00:31:30.859Z,5.25
2024-02-14T00:33:57.911Z,5.14
2024-02-14T00:36:27.760Z,5.53
2024-02-14T00:38:54.539Z,6.27
2024-02-14T00:41:21.988Z,6.03
2024-02-14T00:43:48.764Z,6.06
2024-02-14T00:46:19.059Z,5.86
2024-02-14T00:48:46.001Z,6.87
2024-02-14T00:51:12.852Z,6.09
2024-02-14T00:53:39.690Z,5.77
2024-02-14T00:56:08.274Z,5.81
2024-02-14T00:58:35.070Z,5.91
2024-02-14T01:01:02.832Z,6.76
2024-02-14T01:03:29.683Z,6.69
2024-02-14T01:05:56.533Z,5.65
2024-02-14T01:08:23.398Z,5.42
2024-02-14T01:10:51.460Z,5.73
2024-02-14T01:13:19.697Z,6.11
2024-02-14T01:15:49.252Z,5.49
2024-02-14T01:18:21.011Z,5.29
2024-02-14T01:20:50.859Z,5.41
2024-02-14T01:23:17.942Z,5.69
2024-02-14T01:25:48.295Z,5.49
2024-02-14T01:28:15.518Z,5.21
2024-02-14T01:30:43.755Z,5.27
2024-02-14T01:33:10.705Z,5.24
2024-02-14T01:35:37.685Z,5.27
2024-02-14T01:38:05.448Z,5.47
2024-02-14T01:40:32.318Z,5.51
2024-02-14T01:42:59.166Z,5.42
2024-02-14T01:45:26.084Z,5.50
2024-02-14T01:47:53.084Z,5.77
2024-02-14T01:50:20.083Z,5.90
2024-02-14T01:52:49.714Z,6.00
2024-02-14T01:55:16.510Z,6.50
2024-02-14T01:57:43.276Z,7.23
2024-02-14T02:00:10.334Z,7.69
2024-02-14T02:02:37.274Z,6.23
2024-02-14T02:05:05.437Z,6.06
2024-02-14T02:07:33.252Z,5.99
2024-02-14T02:10:00.170Z,6.17
2024-02-14T02:12:27.816Z,5.90
2024-02-14T02:14:54.993Z,5.83
2024-02-14T02:17:22.827Z,6.14
2024-02-14T02:19:50.030Z,6.93
2024-02-14T02:22:16.889Z,7.58
2024-02-14T02:24:43.717Z,7.91
2024-02-14T02:27:10.819Z,8.14
2024-02-14T02:29:38.939Z,7.22
2024-02-14T02:32:06.214Z,7.24
2024-02-14T02:34:33.181Z,6.53
2024-02-14T02:37:00.035Z,6.87
2024-02-14T02:39:26.842Z,6.45
2024-02-14T02:41:53.634Z,7.32
2024-02-14T02:44:20.494Z,7.43
2024-02-14T02:46:48.344Z,7.98
2024-02-14T02:49:16.016Z,6.51
2024-02-14T02:51:43.006Z,5.89
2024-02-14T02:54:10.156Z,6.16
2024-02-14T02:56:37.659Z,5.92
2024-02-14T02:59:05.564Z,6.38
2024-02-14T03:01:38.490Z,6.93
2024-02-14T03:04:08.339Z,6.72
2024-02-14T03:06:35.523Z,5.60
2024-02-14T03:09:05.207Z,5.59
2024-02-14T03:11:34.982Z,5.71
2024-02-14T03:14:04.626Z,5.96
2024-02-14T03:16:31.946Z,5.67
2024-02-14T03:18:59.296Z,5.37
2024-02-14T03:21:26.182Z,5.52
2024-02-14T03:23:52.994Z,5.91
2024-02-14T03:26:19.967Z,5.57
2024-02-14T03:28:46.823Z,6.08
2024-02-14T03:31:13.604Z,5.64
2024-02-14T03:33:40.652Z,5.78
2024-02-14T03:36:10.413Z,6.76
2024-02-14T03:38:38.403Z,6.83
2024-02-14T03:41:07.920Z,5.34
2024-02-14T03:43:37.548Z,6.21
2024-02-14T03:46:04.517Z,5.36
2024-02-14T03:48:32.604Z,6.09
2024-02-14T03:51:02.346Z,5.69
2024-02-14T03:53:29.262Z,5.15
2024-02-14T03:55:57.844Z,5.09
2024-02-14T03:58:24.756Z,5.08
2024-02-14T04:00:51.564Z,5.13
2024-02-14T04:03:18.451Z,5.11
2024-02-14T04:05:45.405Z,5.09
2024-02-14T04:08:12.527Z,5.22
2024-02-14T04:10:39.776Z,5.74
2024-02-14T04:13:06.692Z,6.14
2024-02-14T04:15:33.689Z,6.63
2024-02-14T04:18:03.009Z,5.52
2024-02-14T04:20:32.564Z,5.12
2024-02-14T04:22:59.425Z,4.85
2024-02-14T04:25:29.329Z,4.41
2024-02-14T04:27:56.432Z,4.47
2024-02-14T04:30:23.640Z,4.45
2024-02-14T04:32:56.924Z,4.57
2024-02-14T04:35:24.054Z,4.35
2024-02-14T04:37:53.686Z,4.50
2024-02-14T04:40:20.575Z,4.66
2024-02-14T04:42:47.827Z,4.83
2024-02-14T04:45:15.408Z,4.68
2024-02-14T04:47:45.243Z,4.91
2024-02-14T04:50:12.029Z,5.03
2024-02-14T04:52:38.788Z,5.02
2024-02-14T04:55:06.553Z,5.03
2024-02-14T04:57:33.423Z,5.15
2024-02-14T05:00:00.340Z,5.07
2024-02-14T05:02:27.459Z,5.98
2024-02-14T05:04:54.306Z,5.27
2024-02-14T05:07:21.133Z,5.29
2024-02-14T05:09:48.387Z,5.35
2024-02-14T05:12:15.214Z,5.33
2024-02-14T05:14:42.161Z,5.14
2024-02-14T05:17:09.301Z,5.18
2024-02-14T05:19:36.134Z,5.35
2024-02-14T05:22:02.950Z,5.23
2024-02-14T05:24:29.784Z,5.31
2024-02-14T05:26:58.411Z,5.35
2024-02-14T05:29:26.310Z,5.38
2024-02-14T05:31:56.014Z,5.49
2024-02-14T05:34:23.024Z,5.48
2024-02-14T05:36:49.932Z,5.59
2024-02-14T05:39:19.495Z,5.60
2024-02-14T05:41:46.464Z,6.57
2024-02-14T05:44:16.338Z,6.39
2024-02-14T05:46:46.005Z,6.73
2024-02-14T05:49:15.784Z,7.32
2024-02-14T05:51:45.460Z,7.41
2024-02-14T05:54:12.428Z,6.85
2024-02-14T05:56:40.087Z,6.69
2024-02-14T05:59:10.388Z,6.02
2024-02-14T06:01:38.713Z,5.81
2024-02-14T06:04:06.333Z,6.03
2024-02-14T06:06:33.656Z,5.79
2024-02-14T06:09:01.042Z,6.40
2024-02-14T06:11:30.803Z,6.81
2024-02-14T06:13:57.937Z,6.40
2024-02-14T06:16:25.063Z,6.18
2024-02-14T06:18:54.629Z,5.69
2024-02-14T06:21:22.138Z,5.69
2024-02-14T06:23:49.470Z,5.90
2024-02-14T06:26:16.233Z,5.90
2024-02-14T06:28:43.518Z,6.44
2024-02-14T06:31:13.101Z,6.24
2024-02-14T06:33:41.264Z,6.11
2024-02-14T06:36:11.023Z,6.19
2024-02-14T06:38:37.997Z,6.27
2024-02-14T06:41:05.220Z,6.35
2024-02-14T06:43:32.583Z,6.37
2024-02-14T06:45:59.707Z,6.40
2024-02-14T06:48:27.114Z,6.91
2024-02-14T06:50:56.622Z,6.59
2024-02-14T06:53:23.996Z,6.46
2024-02-14T06:55:53.717Z,6.52
2024-02-14T06:58:20.522Z,6.80
2024-02-14T07:00:47.794Z,7.00
2024-02-14T07:03:18.620Z,7.51
2024-02-14T07:05:45.730Z,6.95
2024-02-14T07:08:13.095Z,7.33
2024-02-14T07:10:42.818Z,6.78
2024-02-14T07:13:10.634Z,6.51
2024-02-14T07:15:40.929Z,6.39
2024-02-14T07:18:11.083Z,6.47
2024-02-14T07:20:38.124Z,6.27
2024-02-14T07:23:05.827Z,6.51
2024-02-14T07:25:32.685Z,7.60
2024-02-14T07:28:00.267Z,8.12
2024-02-14T07:30:27.475Z,8.39
2024-02-14T07:32:54.685Z,8.19
2024-02-14T07:35:24.161Z,7.02
2024-02-14T07:37:54.028Z,6.83
2024-02-14T07:40:25.257Z,6.45
2024-02-14T07:42:52.104Z,6.16
2024-02-14T07:45:19.322Z,6.26
2024-02-14T07:47:46.523Z,7.27
2024-02-14T07:50:14.010Z,6.85
2024-02-14T07:52:48.915Z,6.57
2024-02-14T07:55:16.758Z,7.37
2024-02-14T07:57:46.339Z,7.93
2024-02-14T08:00:15.201Z,7.17
2024-02-14T08:02:42.751Z,7.14
2024-02-14T08:05:09.560Z,8.12
2024-02-14T08:07:39.227Z,8.90
2024-02-14T08:10:09.325Z,9.40
2024-02-14T08:12:37.518Z,9.91
2024-02-14T08:15:07.425Z,10.12
2024-02-14T08:17:35.716Z,9.82
2024-02-14T08:20:03.246Z,10.60
2024-02-14T08:22:31.135Z,10.91
2024-02-14T08:24:59.063Z,11.09
2024-02-14T08:27:25.945Z,10.85
2024-02-14T08:29:55.750Z,11.35
2024-02-14T08:32:26.989Z,11.04
2024-02-14T08:34:54.960Z,11.09
2024-02-14T08:37:21.946Z,11.00
2024-02-14T08:39:51.541Z,10.56
2024-02-14T08:42:19.063Z,10.93
2024-02-14T08:44:47.672Z,10.84
2024-02-14T08:47:17.272Z,11.01
2024-02-14T08:49:44.995Z,10.96
2024-02-14T08:52:11.828Z,9.41
2024-02-14T08:54:39.042Z,9.93
2024-02-14T08:57:13.063Z,10.14
2024-02-14T08:59:40.218Z,10.47
2024-02-14T09:02:07.282Z,10.02
2024-02-14T09:04:34.433Z,10.53
2024-02-14T09:07:04.529Z,11.11
2024-02-14T09:09:32.000Z,11.82
2024-02-14T09:11:59.255Z,11.86
2024-02-14T09:14:27.002Z,11.30
2024-02-14T09:16:55.690Z,11.10
2024-02-14T09:19:25.500Z,11.57
2024-02-14T09:21:53.084Z,11.37
2024-02-14T09:24:21.580Z,11.63
2024-02-14T09:26:48.526Z,10.91
2024-02-14T09:29:15.852Z,11.02
2024-02-14T09:31:45.586Z,11.53
2024-02-14T09:34:12.693Z,11.67
2024-02-14T09:36:40.241Z,11.90
2024-02-14T09:39:07.135Z,11.16
2024-02-14T09:41:41.683Z,10.97
2024-02-14T09:44:09.091Z,11.16
2024-02-14T09:46:39.473Z,11.22
2024-02-14T09:49:07.625Z,11.17
2024-02-14T09:51:35.138Z,11.25
2024-02-14T09:54:02.182Z,11.22
2024-02-14T09:56:30.694Z,11.86
2024-02-14T09:58:58.121Z,12.14
2024-02-14T10:01:26.178Z,11.61
2024-02-14T10:03:54.005Z,12.40
2024-02-14T10:06:22.460Z,12.24
2024-02-14T10:08:58.465Z,12.67
2024-02-14T10:11:34.096Z,12.87
2024-02-14T10:14:01.305Z,13.05
2024-02-14T10:16:28.557Z,13.10
2024-02-14T10:18:55.950Z,12.85
2024-02-14T10:21:24.168Z,12.62
2024-02-14T10:23:51.972Z,13.17
2024-02-14T10:26:20.156Z,12.49
2024-02-14T10:28:50.277Z,12.29
2024-02-14T10:31:19.089Z,12.26
2024-02-14T10:33:46.947Z,12.44
2024-02-14T10:36:16.940Z,12.45
2024-02-14T10:38:44.546Z,12.46
2024-02-14T10:41:11.637Z,12.54
2024-02-14T10:43:38.953Z,13.19
2024-02-14T10:46:09.403Z,13.17
2024-02-14T10:48:38.210Z,13.91
2024-02-14T10:51:06.039Z,13.27
2024-02-14T10:53:34.658Z,13.17
2024-02-14T10:56:02.068Z,13.60
2024-02-14T10:58:30.982Z,13.96
2024-02-14T11:00:57.773Z,13.83
2024-02-14T11:03:25.120Z,13.94
2024-02-14T11:05:54.520Z,13.55
2024-02-14T11:08:21.689Z,13.61
2024-02-14T11:10:56.869Z,14.10
2024-02-14T11:13:28.017Z,14.00
2024-02-14T11:15:58.277Z,14.19
2024-02-14T11:18:28.914Z,13.75
2024-02-14T11:20:56.224Z,13.51
2024-02-14T11:23:23.296Z,13.64
2024-02-14T11:25:51.841Z,14.11
2024-02-14T11:28:25.655Z,13.93
2024-02-14T11:30:55.464Z,13.82
2024-02-14T11:33:27.592Z,14.30
2024-02-14T11:35:56.494Z,14.61
2024-02-14T11:38:26.444Z,13.61
2024-02-14T11:40:56.665Z,13.84
2024-02-14T11:43:25.330Z,13.81
2024-02-14T11:45:52.182Z,14.26
2024-02-14T11:48:19.410Z,14.63
2024-02-14T11:50:46.516Z,14.04
2024-02-14T11:53:16.631Z,14.67
2024-02-14T11:55:44.533Z,14.56
2024-02-14T11:58:12.001Z,14.05
2024-02-14T12:00:40.305Z,14.01
2024-02-14T12:03:18.131Z,14.05
2024-02-14T12:05:47.217Z,13.37
2024-02-14T12:08:14.450Z,13.83
2024-02-14T12:10:43.762Z,12.39
2024-02-14T12:13:17.665Z,13.54
2024-02-14T12:15:46.601Z,13.91
2024-02-14T12:18:18.307Z,13.25
2024-02-14T12:20:45.417Z,13.92
2024-02-14T12:23:19.228Z,13.71
2024-02-14T12:25:51.893Z,12.85
2024-02-14T12:28:19.344Z,13.96
2024-02-14T12:30:51.264Z,13.98
2024-02-14T12:33:18.423Z,14.38
2024-02-14T12:35:49.564Z,14.60
2024-02-14T12:38:20.252Z,15.15
2024-02-14T12:40:47.883Z,15.37
2024-02-14T12:43:15.485Z,15.55
2024-02-14T12:45:45.288Z,14.58
2024-02-14T12:48:12.744Z,14.39
2024-02-14T12:50:41.558Z,14.49
2024-02-14T12:53:08.739Z,13.86
2024-02-14T12:55:35.680Z,15.01
2024-02-14T12:58:03.663Z,15.09
2024-02-14T13:00:30.671Z,15.43
2024-02-14T13:02:58.323Z,15.42
2024-02-14T13:05:28.439Z,15.73
2024-02-14T13:07:58.191Z,15.55
2024-02-14T13:10:24.990Z,15.65
2024-02-14T13:12:52.050Z,15.98
2024-02-14T13:15:19.419Z,15.52
2024-02-14T13:17:46.754Z,15.76
2024-02-14T13:20:14.326Z,15.93
2024-02-14T13:22:44.574Z,15.80
2024-02-14T13:25:15.264Z,15.86
2024-02-14T13:27:45.490Z,15.60
2024-02-14T13:30:14.084Z,15.52
2024-02-14T13:32:41.590Z,15.35
2024-02-14T13:35:13.450Z,15.70
2024-02-14T13:37:40.310Z,15.95
2024-02-14T13:40:08.072Z,16.23
2024-02-14T13:42:37.989Z,15.70
2024-02-14T13:45:10.857Z,16.00
2024-02-14T13:47:38.448Z,15.88
2024-02-14T13:50:06.623Z,15.47
2024-02-14T13:52:33.858Z,14.38
2024-02-14T13:55:01.664Z,15.00
2024-02-14T13:57:29.519Z,15.28
2024-02-14T13:59:56.578Z,15.40
2024-02-14T14:02:26.348Z,15.44
2024-02-14T14:04:55.886Z,15.63
2024-02-14T14:07:23.205Z,16.07
2024-02-14T14:09:52.659Z,15.41
2024-02-14T14:12:22.242Z,15.65
2024-02-14T14:14:49.746Z,15.19
2024-02-14T14:17:19.430Z,14.83
2024-02-14T14:19:48.871Z,15.11
2024-02-14T14:22:18.667Z,15.37
2024-02-14T14:24:47.246Z,15.13
2024-02-14T14:27:14.847Z,14.89
2024-02-14T14:29:42.289Z,14.34
2024-02-14T14:32:11.106Z,14.18
2024-02-14T14:34:40.960Z,14.81
2024-02-14T14:37:08.878Z,15.23
2024-02-14T14:39:35.771Z,15.53
2024-02-14T14:42:03.074Z,15.42
2024-02-14T14:44:32.906Z,15.83
2024-02-14T14:47:03.080Z,15.73
2024-02-14T14:49:32.300Z,15.85
2024-02-14T14:52:00.731Z,16.22
2024-02-14T14:54:29.069Z,15.82
2024-02-14T14:56:56.431Z,14.94
2024-02-14T14:59:23.864Z,15.19
2024-02-14T15:01:50.954Z,14.77
2024-02-14T15:04:20.216Z,12.93
2024-02-14T15:06:48.841Z,13.10
2024-02-14T15:09:16.341Z,12.36
2024-02-14T15:11:45.996Z,12.12
2024-02-14T15:14:13.259Z,12.32
2024-02-14T15:16:40.039Z,13.22
2024-02-14T15:19:06.994Z,13.93
2024-02-14T15:21:35.169Z,13.98
2024-02-14T15:24:02.067Z,14.65
2024-02-14T15:26:29.352Z,14.68
2024-02-14T15:28:56.489Z,15.05
2024-02-14T15:31:26.190Z,15.42
2024-02-14T15:33:54.912Z,14.36
2024-02-14T15:36:24.736Z,14.50
2024-02-14T15:38:52.500Z,12.93
2024-02-14T15:41:20.629Z,12.28
2024-02-14T15:43:47.798Z,13.24
2024-02-14T15:46:14.624Z,14.07
2024-02-14T15:48:41.932Z,14.45
2024-02-14T15:51:11.733Z,14.83
2024-02-14T15:53:39.885Z,14.97
2024-02-14T15:56:09.661Z,15.05
2024-02-14T15:58:36.920Z,15.34
2024-02-14T16:01:05.722Z,15.44
2024-02-14T16:03:33.000Z,15.35
2024-02-14T16:06:01.447Z,15.34
2024-02-14T16:08:29.002Z,15.45
2024-02-14T16:10:56.576Z,15.54
2024-02-14T16:13:24.837Z,15.62
2024-02-14T16:15:52.792Z,15.55
2024-02-14T16:18:19.845Z,15.62
2024-02-14T16:20:49.580Z,15.70
2024-02-14T16:23:19.993Z,15.40
2024-02-14T16:25:48.082Z,15.23
2024-02-14T16:28:17.721Z,15.24
2024-02-14T16:30:46.021Z,14.18
2024-02-14T16:33:15.785Z,14.97
2024-02-14T16:35:43.096Z,15.05
2024-02-14T16:38:10.373Z,15.23
2024-02-14T16:40:37.275Z,15.02
2024-02-14T16:43:04.834Z,15.02
2024-02-14T16:45:32.669Z,13.08
2024-02-14T16:48:00.401Z,12.25
2024-02-14T16:50:27.265Z,11.53
2024-02-14T16:52:54.232Z,11.92
2024-02-14T16:55:21.589Z,11.67
2024-02-14T16:57:50.954Z,12.56
2024-02-14T17:00:19.201Z,11.79
2024-02-14T17:02:46.087Z,10.65
2024-02-14T17:05:13.394Z,10.17
2024-02-14T17:07:43.434Z,10.71
2024-02-14T17:10:10.797Z,10.25
2024-02-14T17:12:38.734Z,9.99
2024-02-14T17:15:06.431Z,10.87
2024-02-14T17:17:34.785Z,10.12
2024-02-14T17:20:04.682Z,9.84
2024-02-14T17:22:34.251Z,9.96
2024-02-14T17:25:04.360Z,9.10
2024-02-14T17:27:31.935Z,9.54
2024-02-14T17:30:01.726Z,9.85
2024-02-14T17:32:36.179Z,9.77
2024-02-14T17:35:10.503Z,9.34
2024-02-14T17:37:40.557Z,9.06
2024-02-14T17:40:12.118Z,9.07
2024-02-14T17:42:39.320Z,8.82
2024-02-14T17:45:06.460Z,8.86
2024-02-14T17:47:36.334Z,9.05
2024-02-14T17:50:04.220Z,9.02
2024-02-14T17:52:31.499Z,9.14
2024-02-14T17:54:59.273Z,8.73
2024-02-14T17:57:26.314Z,8.78
2024-02-14T17:59:53.281Z,8.62
2024-02-14T18:02:21.406Z,8.57
2024-02-14T18:04:48.784Z,8.52
2024-02-14T18:07:16.071Z,8.47
2024-02-14T18:09:43.187Z,8.47
2024-02-14T18:12:10.444Z,8.36
2024-02-14T18:14:37.680Z,8.65
2024-02-14T18:17:04.960Z,8.38
2024-02-14T18:19:32.173Z,8.29
2024-02-14T18:22:02.046Z,8.17
2024-02-14T18:24:29.231Z,8.03
2024-02-14T18:26:59.084Z,7.98
2024-02-14T18:29:27.392Z,7.87
2024-02-14T18:31:55.993Z,7.83
2024-02-14T18:34:24.262Z,7.73
2024-02-14T18:36:52.389Z,7.63
2024-02-14T18:39:22.403Z,7.70
2024-02-14T18:41:52.002Z,7.77
2024-02-14T18:44:19.205Z,7.54
2024-02-14T18:46:46.035Z,7.49
2024-02-14T18:49:13.624Z,7.30
2024-02-14T18:51:40.601Z,7.21
2024-02-14T18:54:07.559Z,7.24
2024-02-14T18:56:37.341Z,7.15
2024-02-14T18:59:04.495Z,7.42
2024-02-14T19:01:31.754Z,7.41
2024-02-14T19:03:59.842Z,7.38
2024-02-14T19:06:27.051Z,7.21
2024-02-14T19:08:54.569Z,7.07
2024-02-14T19:11:23.092Z,7.25
2024-02-14T19:13:55.446Z,7.32
2024-02-14T19:16:28.392Z,7.25
2024-02-14T19:18:59.632Z,7.19
2024-02-14T19:21:29.341Z,7.23
2024-02-14T19:23:56.280Z,7.00
2024-02-14T19:26:23.459Z,7.14
2024-02-14T19:28:51.105Z,6.97
2024-02-14T19:31:17.916Z,6.93
2024-02-14T19:33:47.916Z,7.04
2024-02-14T19:36:15.170Z,6.98
2024-02-14T19:38:42.397Z,7.06
2024-02-14T19:41:09.471Z,7.04
2024-02-14T19:43:40.052Z,6.90
2024-02-14T19:46:10.171Z,7.07
2024-02-14T19:48:40.075Z,7.20
2024-02-14T19:51:09.809Z,7.18
2024-02-14T19:53:39.426Z,7.15
2024-02-14T19:56:08.999Z,7.03
2024-02-14T19:58:36.242Z,6.95
2024-02-14T20:01:03.609Z,6.78
2024-02-14T20:03:31.163Z,6.87
2024-02-14T20:05:58.848Z,6.81
2024-02-14T20:08:25.762Z,6.77
2024-02-14T20:10:52.557Z,6.92
2024-02-14T20:13:19.403Z,7.00
2024-02-14T20:15:46.584Z,6.97
2024-02-14T20:18:17.280Z,6.92
2024-02-14T20:20:45.074Z,6.99
2024-02-14T20:23:14.950Z,6.94
2024-02-14T20:25:44.330Z,6.66
2024-02-14T20:28:11.619Z,6.48
2024-02-14T20:30:38.913Z,6.41
2024-02-14T20:33:11.998Z,6.34
2024-02-14T20:35:39.096Z,6.43
2024-02-14T20:38:06.362Z,6.45
2024-02-14T20:40:33.616Z,6.39
2024-02-14T20:43:00.877Z,6.26
2024-02-14T20:45:30.605Z,6.23
2024-02-14T20:47:57.894Z,6.19
2024-02-14T20:50:25.077Z,6.35
2024-02-14T20:52:54.613Z,6.28
2024-02-14T20:55:21.855Z,6.34
2024-02-14T20:57:48.598Z,6.42
2024-02-14T21:00:16.817Z,6.39
2024-02-14T21:02:44.518Z,6.26
2024-02-14T21:05:12.318Z,6.31
2024-02-14T21:07:39.506Z,6.42
2024-02-14T21:10:07.968Z,6.34
2024-02-14T21:12:37.680Z,6.17
2024-02-14T21:15:07.708Z,5.96
2024-02-14T21:17:37.645Z,5.91
2024-02-14T21:20:05.062Z,5.94
2024-02-14T21:22:32.180Z,5.99
2024-02-14T21:24:59.014Z,6.13
2024-02-14T21:27:28.756Z,6.32
2024-02-14T21:29:55.969Z,6.04
2024-02-14T21:32:25.702Z,5.98
2024-02-14T21:34:52.908Z,6.06
2024-02-14T21:37:20.181Z,5.96
2024-02-14T21:39:48.816Z,5.99
2024-02-14T21:42:15.978Z,5.93
2024-02-14T21:44:43.154Z,6.20
2024-02-14T21:47:11.594Z,5.90
2024-02-14T21:49:39.139Z,5.77
2024-02-14T21:52:06.293Z,5.67
2024-02-14T21:54:33.450Z,5.58
2024-02-14T21:57:06.447Z,5.64
2024-02-14T21:59:36.097Z,5.74
2024-02-14T22:02:03.950Z,5.77
2024-02-14T22:04:31.346Z,5.68
2024-02-14T22:06:59.623Z,5.47
2024-02-14T22:09:27.185Z,5.40
2024-02-14T22:11:55.367Z,5.40
2024-02-14T22:14:24.987Z,5.30
2024-02-14T22:16:54.672Z,5.47
2024-02-14T22:19:21.474Z,5.52
2024-02-14T22:21:48.282Z,5.57
2024-02-14T22:24:18.597Z,5.57
2024-02-14T22:26:45.992Z,5.38
2024-02-14T22:29:15.568Z,5.24
2024-02-14T22:31:42.864Z,5.23
2024-02-14T22:34:12.542Z,5.30
2024-02-14T22:36:39.511Z,5.40
2024-02-14T22:39:09.289Z,5.33
2024-02-14T22:41:42.008Z,5.56
2024-02-14T22:44:09.016Z,5.70
2024-02-14T22:46:39.219Z,5.63
2024-02-14T22:49:06.595Z,5.55
2024-02-14T22:51:34.439Z,5.65
2024-02-14T22:54:01.803Z,5.30
2024-02-14T22:56:30.024Z,5.31
2024-02-14T22:58:57.552Z,5.22
2024-02-14T23:01:26.186Z,5.10
2024-02-14T23:03:56.697Z,5.34
2024-02-14T23:06:23.591Z,5.45
2024-02-14T23:08:50.825Z,5.40
2024-02-14T23:11:17.601Z,5.10
2024-02-14T23:13:44.913Z,5.11
2024-02-14T23:16:12.227Z,5.20
2024-02-14T23:18:39.638Z,5.21
2024-02-14T23:21:09.377Z,5.39
2024-02-14T23:23:41.160Z,5.54
2024-02-14T23:26:08.060Z,5.45
2024-02-14T23:28:37.813Z,5.12
2024-02-14T23:31:05.441Z,5.14
2024-02-14T23:33:33.183Z,5.33
2024-02-14T23:36:01.102Z,5.48
2024-02-14T23:38:29.352Z,5.39
2024-02-14T23:40:56.192Z,5.29
2024-02-14T23:43:23.089Z,5.46
2024-02-14T23:45:50.322Z,5.56
2024-02-14T23:48:18.018Z,5.43
2024-02-14T23:50:48.345Z,5.33
2024-02-14T23:53:15.810Z,5.41
2024-02-14T23:55:42.906Z,5.23
2024-02-14T23:58:10.398Z,5.13
